createdAt,value
2023-03-20T00:10:11.128Z,978.83
2023-03-20T00:22:08.819Z,978.90
2023-03-20T00:34:09.253Z,978.87
2023-03-20T00:46:09.725Z,978.86
2023-03-20T00:58:10.163Z,978.90
2023-03-20T01:10:12.811Z,978.93
2023-03-20T01:22:11.070Z,978.80
2023-03-20T01:34:14.216Z,978.79
2023-03-20T01:46:12.021Z,978.93
2023-03-20T01:58:12.420Z,978.91
2023-03-20T02:10:12.857Z,978.94
2023-03-20T02:22:13.315Z,979.03
2023-03-20T02:34:13.769Z,979.07
2023-03-20T02:46:14.349Z,978.97
2023-03-20T02:58:16.875Z,978.94
2023-03-20T03:10:15.323Z,979.05
2023-03-20T03:22:15.579Z,978.96
2023-03-20T03:34:16.027Z,978.89
2023-03-20T03:46:16.497Z,978.97
2023-03-20T03:58:16.950Z,979.09
2023-03-20T04:10:17.394Z,979.32
2023-03-20T04:22:18.035Z,979.29
2023-03-20T04:34:18.363Z,979.24
2023-03-20T04:46:18.811Z,979.40
2023-03-20T04:58:19.211Z,979.42
2023-03-20T05:10:19.663Z,979.57
2023-03-20T05:22:20.095Z,979.54
2023-03-20T05:34:20.590Z,979.75
2023-03-20T05:46:21.021Z,979.72
2023-03-20T05:58:21.457Z,979.98
2023-03-20T06:10:24.615Z,980.18
2023-03-20T06:22:25.075Z,980.11
2023-03-20T06:34:22.812Z,980.16
2023-03-20T06:46:23.291Z,980.23
2023-03-20T06:58:23.705Z,980.31
2023-03-20T07:10:24.172Z,980.33
2023-03-20T07:22:24.609Z,980.28
2023-03-20T07:34:25.073Z,980.37
2023-03-20T07:46:25.738Z,980.37
2023-03-20T07:58:26.031Z,980.47
2023-03-20T08:10:26.511Z,980.34
2023-03-20T08:22:26.886Z,980.35
2023-03-20T08:34:27.361Z,980.43
2023-03-20T08:46:27.899Z,980.44
2023-03-20T08:58:28.229Z,980.51
2023-03-20T09:10:28.703Z,980.47
2023-03-20T09:22:29.163Z,980.46
2023-03-20T09:34:29.657Z,980.53
2023-03-20T09:46:30.096Z,980.34
2023-03-20T09:58:30.503Z,980.36
2023-03-20T10:10:30.936Z,980.24
2023-03-20T10:22:31.451Z,980.27
2023-03-20T10:34:31.841Z,980.12
2023-03-20T10:46:32.384Z,980.07
2023-03-20T10:58:32.788Z,980.21
2023-03-20T11:10:33.549Z,980.09
2023-03-20T11:22:33.689Z,980.07
2023-03-20T11:34:34.265Z,979.89
2023-03-20T11:46:34.560Z,979.76
2023-03-20T11:58:35.059Z,979.70
2023-03-20T12:10:35.842Z,979.50
2023-03-20T12:22:35.996Z,979.31
2023-03-20T12:34:36.427Z,979.37
2023-03-20T12:46:36.921Z,979.21
2023-03-20T12:58:37.329Z,979.08
2023-03-20T13:10:38.186Z,979.07
2023-03-20T13:22:38.279Z,979.01
2023-03-20T13:34:38.750Z,978.92
2023-03-20T13:46:39.234Z,978.96
2023-03-20T13:58:39.653Z,978.91
2023-03-20T14:10:40.380Z,978.74
2023-03-20T14:22:40.501Z,978.78
2023-03-20T14:34:40.969Z,978.75
2023-03-20T14:46:41.456Z,978.80
2023-03-20T14:58:41.893Z,978.73
2023-03-20T15:10:42.369Z,978.81
2023-03-20T15:22:42.796Z,978.73
2023-03-20T15:34:43.258Z,978.78
2023-03-20T15:46:43.714Z,978.81
2023-03-20T15:58:44.188Z,978.84
2023-03-20T16:10:44.608Z,978.93
2023-03-20T16:22:45.086Z,979.07
2023-03-20T16:34:45.512Z,979.11
2023-03-20T16:46:46.010Z,979.15
2023-03-20T16:58:46.433Z,979.33
2023-03-20T17:10:47.048Z,979.38
2023-03-20T17:22:47.361Z,979.53
2023-03-20T17:34:47.849Z,979.53
2023-03-20T17:46:57.959Z,979.51
2023-03-20T17:58:48.721Z,979.62
2023-03-20T18:10:49.163Z,979.69
2023-03-20T18:22:49.655Z,979.81
2023-03-20T18:34:50.048Z,979.83
2023-03-20T18:46:50.766Z,979.87
2023-03-20T18:58:50.973Z,979.84
2023-03-20T19:10:51.436Z,979.93
2023-03-20T19:22:51.869Z,979.97
2023-03-20T19:35:38.908Z,979.93
2023-03-20T19:46:52.795Z,979.97
2023-03-20T19:58:53.289Z,979.95
2023-03-20T20:10:56.906Z,980.02
2023-03-20T20:22:54.333Z,980.01
2023-03-20T20:46:55.055Z,980.05
2023-03-20T20:58:59.709Z,980.03
2023-03-20T21:10:55.958Z,980.10
2023-03-20T21:22:56.403Z,980.08
2023-03-20T21:34:56.899Z,980.13
2023-03-20T21:47:50.809Z,980.16
2023-03-20T22:11:45.011Z,980.24
2023-03-20T22:46:59.547Z,980.07
2023-03-20T22:59:00.035Z,980.02
2023-03-20T23:11:02.762Z,980.03
2023-03-20T23:23:00.972Z,980.19
2023-03-20T23:35:03.660Z,980.09
2023-03-20T23:47:08.356Z,980.06
2023-03-20T23:59:11.452Z,980.12
